Pandora, Ohio
Current Conditions -  °F | °C
As of 7:53 AM on Sunday 23 Nov 2014 (Local Time) from KFDY Reporting Station
Overcast Overcast  
Wind Chill: 41°   Ceiling: 5500
Heat Index: 46°   Visibility: 10mi
Dew Point: 41°   Wind: 9mph
Humidity: 83%   Direction: 150°SSE
Pressure: 29.95"   Gusts: NA
Location:  40.95°N, 83.96°W
Report Text: KFDY 231253Z AUTO 15008KT 10SM SCT033 OVC055 08/05 A2995 RMK AO2 RAB00E10 SLP142 P0000 T00780050
Loading
Personal Weather Stations






























Interactive Weather Map New forecast layout! Learn more

10-Day Weather Forecast

Advertisements
Track Severe Weather on mobile